• Join FlightAware (Why Join?)
  • Login
  • US Flag 
10:40AM EDT


 

Airport Tracker/Info


-or-


 

Live Flight TrackerFlight Track Log ✈ RPA3275 ✈ 15-May-2013 ✈ KALB - KPHL

Flight Track Log - Related Links

Times and Time Zones

All times are in EDT time to prevent confusion due to time zone crossing. See the RPA3275 flight status page for this flight to view local times or setup timezone preferences in your user account.

Time Position Orientation Groundspeed Altitude Reporting Facility
EDT Latitude Longitude Course Direction KTS MPH feet Rate Location/Type
06:55AM 42.7672 -73.8061 220° Southwest 138 159 1,500  Level Boston Center
06:56AM 42.8022 -73.8578 313° West 236 272 4,000 3,060 Climbing Boston Center
06:57AM 42.7333 -74.1416 270° West  Level FlightAware Approximate
06:57AM 42.7925 -73.9567 262° West 257 296 8,300  Level Boston Center
06:58AM 42.7333 -74.2554 270° West  Level FlightAware Approximate
06:58AM 42.7786 -74.0553 259° West 263 303 11,600  Level Boston Center
06:59AM 42.7003 -74.3518 220° Southwest  Level FlightAware Approximate
06:59AM 42.7622 -74.1792 260° West 284 327 15,400  Level Boston Center
07:00AM 42.6359 -74.4243 220° Southwest  Level FlightAware Approximate
07:00AM 42.7439 -74.2947 258° West 305 351 16,000  Level Boston Center
07:01AM 42.6778 -74.3831 225° Southwest 324 373 16,000 -60 Level Boston Center
07:02AM 42.6072 -74.4711 223° Southwest 332 382 15,900 -60 Descending Boston Center
07:03AM 42.5331 -74.5506 218° Southwest 348 400 15,900  Level Boston Center
07:04AM 42.4583 -74.6353 220° Southwest 353 406 15,900  Level Boston Center
07:05AM 42.3839 -74.7197 220° Southwest 353 406 15,900  Level Boston Center
07:06AM 42.3197 -74.7989 222° Southwest 353 406 15,900  Level Boston Center
07:07AM 42.2492 -74.8831 221° Southwest 353 406 15,900  Level Boston Center
07:09AM 42.1033 -75.0194 215° Southwest 351 404 15,900  Level New York Center
07:10AM 42.0197 -75.0894 212° Southwest 356 410 16,000  Climbing New York Center
07:11AM 41.9358 -75.1594 212° Southwest 356 410 16,000  Level New York Center
07:12AM 41.8522 -75.2261 211° Southwest 356 410 16,000  Level New York Center
07:13AM 41.7750 -75.2878 211° Southwest 356 410 16,000  Level New York Center
07:14AM 41.6911 -75.3572 212° Southwest 356 410 16,000 -480 Level New York Center
07:15AM 41.5986 -75.4311 211° Southwest 356 410 15,100 -1,380 Descending New York Center
07:16AM 41.5169 -75.4975 211° Southwest 350 403 13,300 -1,620 Descending New York Center
07:17AM 41.4372 -75.5611 211° Southwest 350 403 11,900 -720 Descending New York Center
07:18AM 41.3686 -75.6142 210° Southwest 338 389 11,900 -120 Level New York Center
07:19AM 41.2783 -75.6822 210° Southwest 338 389 11,700 -660 Descending New York Center
07:20AM 41.1864 -75.6894 183° South 326 375 10,700 -900 Descending New York Center
07:21AM 41.0947 -75.6883 179° South 333 383 9,900 -420 Descending New York Center
07:22AM 41.0017 -75.6678 171° South 333 383 9,900  Level New York Center
07:23AM 40.9117 -75.6283 162° South 341 392 10,000  Climbing New York Center
07:24AM 40.8217 -75.5889 162° South 346 398 10,000  Level New York Center
07:25AM 40.7500 -75.5592 163° South 346 398 10,000  Level New York Center
07:26AM 40.6394 -75.5106 162° South 340 391 10,000  Level New York Center
07:27AM 40.5492 -75.4714 162° South 340 391 10,000  Level New York Center
07:28AM 40.4608 -75.4383 164° South 335 386 10,100 -360 Climbing New York Center
07:29AM 40.3875 -75.3950 156° South 322 371 9,300 -1,320 Descending New York Center
07:30AM 40.3003 -75.3919 178° South 300 345 7,500 -1,200 Descending New York Center
07:31AM 40.2225 -75.4086 189° South 293 337 7,000 -600 Descending New York Center
07:32AM 40.1422 -75.4331 193° South 296 341 6,400 -540 Descending New York Center
07:33AM 40.0706 -75.4581 195° South 284 327 6,000 -240 Descending New York Center
07:34AM 40.0006 -75.4833 195° South 278 320 6,000  Level New York Center
07:35AM 39.9372 -75.5033 194° South 272 313 6,000 -600 Level New York Center
07:36AM 39.8614 -75.5253 193° South 267 307 4,800 -1,260 Descending New York Center
07:37AM 39.8167 -75.4833 144° Southeast 223 257 3,900 -1,200 Descending Philadelphia TRACON
07:38AM 39.8333 -75.4167 72° East 166 191 2,800 -1,200 Descending Philadelphia TRACON
07:39AM 39.8500 -75.3667 67° East 144 166 1,600 -1,200 Descending Philadelphia TRACON